createdAt,value
2019-05-14T00:02:09.243Z,6.60
2019-05-14T00:04:35.867Z,6.60
2019-05-14T00:07:07.927Z,6.60
2019-05-14T00:09:34.554Z,6.60
2019-05-14T00:12:14.682Z,6.50
2019-05-14T00:14:43.734Z,6.50
2019-05-14T00:17:11.841Z,6.50
2019-05-14T00:19:41.366Z,6.40
2019-05-14T00:22:07.408Z,6.10
2019-05-14T00:24:33.832Z,6.40
2019-05-14T00:27:02.061Z,6.40
2019-05-14T00:29:28.963Z,6.40
2019-05-14T00:31:55.525Z,6.40
2019-05-14T00:34:22.079Z,6.50
2019-05-14T00:36:48.491Z,6.50
2019-05-14T00:39:15.159Z,6.50
2019-05-14T00:41:42.204Z,6.50
2019-05-14T00:44:09.225Z,6.50
2019-05-14T00:46:35.908Z,6.50
2019-05-14T00:49:02.506Z,6.50
2019-05-14T00:51:29.120Z,6.50
2019-05-14T00:53:55.691Z,6.50
2019-05-14T00:56:22.206Z,6.50
2019-05-14T00:58:48.855Z,6.50
2019-05-14T01:01:15.536Z,6.60
2019-05-14T01:03:42.443Z,6.60
2019-05-14T01:06:11.205Z,6.50
2019-05-14T01:08:37.809Z,6.50
2019-05-14T01:11:04.325Z,6.50
2019-05-14T01:13:31.273Z,6.40
2019-05-14T01:15:58.152Z,6.40
2019-05-14T01:18:24.604Z,6.20
2019-05-14T01:20:51.954Z,6.20
2019-05-14T01:23:18.997Z,6.10
2019-05-14T01:25:45.608Z,6.10
2019-05-14T01:28:12.223Z,6.00
2019-05-14T01:30:41.004Z,6.10
2019-05-14T01:33:07.106Z,6.00
2019-05-14T01:35:33.748Z,6.00
2019-05-14T01:38:02.689Z,5.90
2019-05-14T01:40:31.884Z,5.90
2019-05-14T01:45:54.574Z,5.90
2019-05-14T01:48:22.086Z,5.90
2019-05-14T01:50:49.237Z,5.90
2019-05-14T01:53:16.083Z,5.90
2019-05-14T01:56:05.638Z,5.70
2019-05-14T01:58:32.152Z,5.80
2019-05-14T02:00:58.775Z,5.80
2019-05-14T02:03:25.386Z,5.80
2019-05-14T02:05:52.266Z,5.70
2019-05-14T02:08:21.282Z,5.70
2019-05-14T02:10:47.440Z,5.70
2019-05-14T02:13:14.758Z,5.70
2019-05-14T02:15:42.951Z,5.70
2019-05-14T02:18:11.140Z,5.60
2019-05-14T02:20:38.131Z,5.60
2019-05-14T02:23:05.094Z,5.60
2019-05-14T02:25:53.789Z,5.60
2019-05-14T02:28:22.116Z,5.60
2019-05-14T02:30:57.728Z,5.60
2019-05-14T02:33:19.292Z,5.60
2019-05-14T02:35:45.526Z,5.50
2019-05-14T02:38:12.194Z,5.40
2019-05-14T02:40:40.361Z,5.40
2019-05-14T02:43:09.668Z,5.40
2019-05-14T02:45:45.177Z,5.50
2019-05-14T02:48:05.350Z,5.50
2019-05-14T02:50:32.030Z,5.60
2019-05-14T02:52:59.883Z,5.70
2019-05-14T02:55:29.617Z,5.70
2019-05-14T02:57:55.477Z,5.70
2019-05-14T03:00:22.199Z,5.70
2019-05-14T03:02:49.571Z,5.80
2019-05-14T03:05:19.252Z,5.80
2019-05-14T03:07:44.933Z,5.80
2019-05-14T03:10:11.648Z,5.90
2019-05-14T03:12:39.568Z,5.90
2019-05-14T03:15:09.596Z,5.90
2019-05-14T03:17:40.054Z,5.90
2019-05-14T03:20:09.036Z,6.00
2019-05-14T03:22:52.594Z,6.10
2019-05-14T03:25:06.041Z,6.10
2019-05-14T03:27:32.920Z,6.10
2019-05-14T03:29:59.525Z,6.10
2019-05-14T03:32:26.255Z,6.10
2019-05-14T03:34:54.265Z,6.10
2019-05-14T03:37:23.693Z,6.10
2019-05-14T03:39:49.844Z,6.10
2019-05-14T03:42:19.232Z,6.00
2019-05-14T03:44:45.022Z,6.00
2019-05-14T03:47:11.658Z,6.10
2019-05-14T03:49:39.806Z,6.10
2019-05-14T03:52:09.654Z,6.00
2019-05-14T03:54:35.484Z,6.00
2019-05-14T03:57:02.110Z,6.00
2019-05-14T03:59:29.345Z,6.00
2019-05-14T04:01:59.395Z,6.00
2019-05-14T04:04:24.871Z,6.00
2019-05-14T04:06:52.998Z,5.90
2019-05-14T04:09:21.122Z,5.90
2019-05-14T04:11:51.378Z,5.90
2019-05-14T04:14:21.184Z,5.80
2019-05-14T04:17:03.897Z,5.80
2019-05-14T04:19:21.240Z,5.80
2019-05-14T04:21:49.155Z,5.90
2019-05-14T04:24:20.147Z,5.80
2019-05-14T04:27:02.535Z,5.90
2019-05-14T04:29:19.826Z,5.90
2019-05-14T04:31:50.380Z,5.90
2019-05-14T04:34:19.309Z,5.90
2019-05-14T04:36:44.962Z,6.00
2019-05-14T04:39:11.584Z,6.00
2019-05-14T04:41:39.453Z,6.10
2019-05-14T04:44:09.555Z,6.10
2019-05-14T04:46:34.692Z,6.20
2019-05-14T04:49:01.214Z,6.20
2019-05-14T04:51:30.203Z,6.20
2019-05-14T04:53:59.606Z,6.30
2019-05-14T04:56:24.753Z,6.30
2019-05-14T04:58:51.535Z,6.40
2019-05-14T05:01:20.438Z,6.40
2019-05-14T05:03:49.973Z,6.50
2019-05-14T05:06:14.864Z,6.50
2019-05-14T05:08:41.382Z,6.50
2019-05-14T05:11:09.343Z,6.50
2019-05-14T05:13:39.276Z,6.50
2019-05-14T05:16:04.817Z,6.50
2019-05-14T05:18:33.526Z,6.50
2019-05-14T05:21:00.210Z,6.50
2019-05-14T05:23:28.270Z,6.50
2019-05-14T05:25:55.238Z,6.50
2019-05-14T05:28:21.790Z,6.60
2019-05-14T05:30:49.044Z,6.60
2019-05-14T05:33:15.934Z,6.60
2019-05-14T05:35:42.496Z,6.60
2019-05-14T05:38:09.045Z,6.70
2019-05-14T05:40:35.890Z,6.80
2019-05-14T05:43:02.538Z,6.90
2019-05-14T05:45:29.124Z,6.90
2019-05-14T05:47:59.008Z,6.90
2019-05-14T05:50:24.137Z,7.00
2019-05-14T05:52:53.744Z,7.00
2019-05-14T05:55:19.264Z,7.00
2019-05-14T05:57:46.437Z,7.00
2019-05-14T06:00:14.356Z,7.00
2019-05-14T06:02:40.868Z,7.00
2019-05-14T06:05:08.202Z,7.10
2019-05-14T06:07:35.217Z,7.20
2019-05-14T06:10:01.827Z,7.30
2019-05-14T06:12:29.604Z,7.40
2019-05-14T06:14:57.939Z,7.40
2019-05-14T06:17:24.637Z,7.50
2019-05-14T06:19:51.289Z,7.50
2019-05-14T06:22:18.820Z,7.70
2019-05-14T06:24:48.357Z,7.80
2019-05-14T06:27:14.303Z,7.90
2019-05-14T06:29:41.560Z,7.90
2019-05-14T06:32:09.237Z,8.00
2019-05-14T06:34:38.339Z,8.00
2019-05-14T06:37:04.528Z,7.90
2019-05-14T06:39:31.055Z,8.00
2019-05-14T06:41:58.966Z,8.00
2019-05-14T06:44:29.231Z,8.00
2019-05-14T06:46:59.115Z,8.20
2019-05-14T06:49:25.898Z,8.20
2019-05-14T06:51:52.450Z,8.30
2019-05-14T06:54:19.774Z,8.30
2019-05-14T06:56:48.825Z,8.50
2019-05-14T06:59:15.486Z,8.60
2019-05-14T07:01:42.821Z,8.60
2019-05-14T07:04:09.403Z,8.90
2019-05-14T07:06:40.782Z,8.80
2019-05-14T07:09:08.053Z,9.00
2019-05-14T07:11:34.464Z,9.20
2019-05-14T07:14:03.278Z,9.20
2019-05-14T07:16:30.105Z,9.30
2019-05-14T07:18:59.056Z,9.40
2019-05-14T07:21:25.270Z,9.40
2019-05-14T07:23:59.294Z,9.20
2019-05-14T07:26:29.684Z,9.20
2019-05-14T07:28:58.912Z,9.20
2019-05-14T07:31:25.311Z,9.00
2019-05-14T07:33:51.923Z,9.20
2019-05-14T07:36:19.180Z,9.10
2019-05-14T07:38:48.898Z,9.30
2019-05-14T07:41:15.123Z,9.30
2019-05-14T07:43:42.057Z,9.40
2019-05-14T07:46:10.077Z,9.40
2019-05-14T07:48:43.152Z,9.40
2019-05-14T07:51:10.309Z,9.50
2019-05-14T07:53:42.473Z,9.40
2019-05-14T07:56:09.466Z,9.40
2019-05-14T07:58:38.681Z,9.30
2019-05-14T08:01:05.358Z,9.40
2019-05-14T08:03:31.910Z,9.30
2019-05-14T08:06:01.051Z,9.20
2019-05-14T08:08:30.635Z,9.30
2019-05-14T08:11:15.732Z,9.40
2019-05-14T08:13:46.415Z,9.50
2019-05-14T08:16:14.319Z,9.40
2019-05-14T08:18:41.122Z,9.40
2019-05-14T08:21:08.907Z,9.50
2019-05-14T08:23:39.368Z,9.60
2019-05-14T08:26:07.972Z,9.70
2019-05-14T08:28:35.015Z,9.80
2019-05-14T08:31:01.845Z,9.80
2019-05-14T08:33:29.176Z,10.00
2019-05-14T08:35:58.802Z,10.10
2019-05-14T08:38:25.429Z,10.10
2019-05-14T08:40:52.108Z,10.00
2019-05-14T08:43:21.712Z,9.90
2019-05-14T08:45:48.951Z,10.00
2019-05-14T08:48:19.030Z,10.20
2019-05-14T08:50:44.755Z,10.30
2019-05-14T08:53:18.584Z,10.50
2019-05-14T08:55:45.649Z,10.40
2019-05-14T08:58:20.058Z,10.30
2019-05-14T09:00:48.309Z,10.40
2019-05-14T09:03:19.250Z,10.40
2019-05-14T09:05:49.184Z,10.60
2019-05-14T09:08:18.966Z,10.30
2019-05-14T09:10:45.314Z,10.60
2019-05-14T09:13:11.732Z,10.40
2019-05-14T09:15:38.978Z,10.30
2019-05-14T09:18:05.881Z,10.50
2019-05-14T09:20:32.472Z,10.70
2019-05-14T09:22:59.572Z,10.60
2019-05-14T09:25:29.043Z,10.40
2019-05-14T09:27:58.557Z,10.60
2019-05-14T09:30:38.130Z,10.50
2019-05-14T09:33:04.955Z,10.60
2019-05-14T09:35:31.621Z,10.60
2019-05-14T09:38:05.220Z,10.90
2019-05-14T09:40:33.857Z,10.60
2019-05-14T09:43:05.375Z,10.50
2019-05-14T09:45:32.640Z,10.60
2019-05-14T09:47:59.300Z,10.60
2019-05-14T09:50:26.076Z,10.30
2019-05-14T09:52:53.250Z,10.50
2019-05-14T09:55:20.029Z,10.40
2019-05-14T09:57:48.978Z,10.60
2019-05-14T10:00:18.624Z,10.70
2019-05-14T10:02:48.854Z,10.80
2019-05-14T10:05:14.719Z,10.30
2019-05-14T10:07:44.779Z,10.10
2019-05-14T10:10:11.738Z,10.40
2019-05-14T10:12:51.611Z,10.60
2019-05-14T10:15:08.859Z,10.30
2019-05-14T10:17:38.969Z,10.30
2019-05-14T10:20:08.599Z,10.40
2019-05-14T10:22:34.478Z,10.70
2019-05-14T10:25:01.586Z,11.10
2019-05-14T10:27:28.451Z,11.10
2019-05-14T10:29:55.493Z,11.20
2019-05-14T10:32:22.122Z,11.50
2019-05-14T10:34:48.922Z,12.00
2019-05-14T10:37:15.731Z,12.30
2019-05-14T10:39:42.598Z,12.10
2019-05-14T10:42:09.568Z,11.60
2019-05-14T10:44:38.491Z,11.60
2019-05-14T10:47:04.627Z,11.10
2019-05-14T10:49:31.768Z,11.20
2019-05-14T10:51:58.647Z,11.10
2019-05-14T10:54:29.804Z,11.00
2019-05-14T10:56:59.054Z,10.90
2019-05-14T10:59:25.583Z,11.10
2019-05-14T11:01:53.981Z,11.20
2019-05-14T11:04:21.987Z,11.60
2019-05-14T11:06:49.104Z,11.70
2019-05-14T11:09:18.095Z,12.00
2019-05-14T11:11:45.181Z,12.40
2019-05-14T11:14:12.044Z,12.50
2019-05-14T11:16:41.973Z,12.00
2019-05-14T11:19:09.526Z,11.70
2019-05-14T11:21:36.097Z,11.60
2019-05-14T11:24:04.803Z,11.70
2019-05-14T11:26:31.681Z,12.10
2019-05-14T11:28:58.685Z,12.60
2019-05-14T11:31:26.035Z,12.30
2019-05-14T11:33:54.578Z,12.70
2019-05-14T11:36:21.229Z,12.30
2019-05-14T11:38:50.563Z,12.00
2019-05-14T11:41:18.616Z,12.20
2019-05-14T11:43:49.155Z,12.60
2019-05-14T11:46:13.974Z,13.10
2019-05-14T11:48:40.622Z,13.00
2019-05-14T11:51:09.010Z,14.50
2019-05-14T11:53:38.355Z,14.80
2019-05-14T11:56:04.830Z,15.10
2019-05-14T11:58:31.466Z,14.40
2019-05-14T12:00:58.494Z,14.00
2019-05-14T12:03:25.331Z,13.40
2019-05-14T12:05:52.931Z,13.50
2019-05-14T12:08:20.788Z,12.90
2019-05-14T12:10:47.643Z,12.20
2019-05-14T12:13:14.371Z,12.30
2019-05-14T12:15:41.062Z,12.60
2019-05-14T12:18:10.345Z,12.00
2019-05-14T12:20:39.542Z,12.30
2019-05-14T12:23:05.374Z,12.20
2019-05-14T12:25:34.031Z,12.10
2019-05-14T12:28:01.891Z,12.80
2019-05-14T12:30:28.865Z,13.00
2019-05-14T12:32:55.710Z,13.00
2019-05-14T12:35:22.377Z,13.00
2019-05-14T12:37:49.297Z,13.10
2019-05-14T12:40:16.030Z,12.50
2019-05-14T12:42:42.833Z,12.20
2019-05-14T12:45:11.008Z,12.30
2019-05-14T12:47:38.430Z,12.40
2019-05-14T12:50:09.120Z,12.50
2019-05-14T12:52:35.393Z,12.20
2019-05-14T12:55:04.576Z,12.00
2019-05-14T12:57:31.418Z,11.80
2019-05-14T12:59:59.159Z,11.70
2019-05-14T13:02:29.582Z,11.30
2019-05-14T13:05:00.004Z,11.40
2019-05-14T13:07:25.318Z,11.40
2019-05-14T13:09:51.982Z,11.40
2019-05-14T13:12:20.579Z,11.50
2019-05-14T13:14:48.939Z,11.50
2019-05-14T13:17:18.544Z,11.20
2019-05-14T13:19:44.933Z,11.10
2019-05-14T13:22:15.150Z,11.20
2019-05-14T13:24:41.077Z,11.40
2019-05-14T13:27:09.431Z,11.40
2019-05-14T13:29:36.685Z,11.50
2019-05-14T13:32:03.711Z,11.30
2019-05-14T13:34:30.391Z,11.20
2019-05-14T13:36:59.617Z,11.40
2019-05-14T13:39:28.131Z,11.50
2019-05-14T13:41:54.290Z,12.10
2019-05-14T13:44:24.890Z,12.10
2019-05-14T13:46:49.373Z,12.00
2019-05-14T13:49:18.885Z,11.80
2019-05-14T13:51:44.760Z,11.80
2019-05-14T13:54:11.581Z,11.80
2019-05-14T13:56:39.022Z,11.60
2019-05-14T13:59:06.235Z,11.40
2019-05-14T14:01:33.029Z,11.50
2019-05-14T14:04:10.370Z,11.60
2019-05-14T14:06:28.668Z,12.00
2019-05-14T14:08:59.072Z,12.20
2019-05-14T14:11:24.628Z,12.70
2019-05-14T14:13:51.184Z,13.40
2019-05-14T14:16:19.731Z,13.70
2019-05-14T14:18:50.010Z,13.60
2019-05-14T14:21:19.348Z,14.10
2019-05-14T14:23:44.208Z,14.10
2019-05-14T14:26:11.053Z,14.10
2019-05-14T14:28:39.574Z,14.20
2019-05-14T14:31:08.247Z,14.60
2019-05-14T14:33:35.397Z,14.20
2019-05-14T14:36:02.203Z,13.40
2019-05-14T14:38:29.521Z,12.70
2019-05-14T14:40:58.261Z,12.50
2019-05-14T14:43:25.064Z,12.60
2019-05-14T14:45:54.612Z,12.40
2019-05-14T14:48:21.370Z,12.10
2019-05-14T14:50:49.866Z,12.00
2019-05-14T14:53:19.845Z,11.90
2019-05-14T14:55:45.310Z,11.70
2019-05-14T14:58:12.121Z,11.10
2019-05-14T15:00:39.043Z,11.00
2019-05-14T15:03:16.766Z,11.20
2019-05-14T15:05:44.735Z,11.30
2019-05-14T15:08:11.749Z,11.20
2019-05-14T15:10:44.893Z,11.00
2019-05-14T15:13:11.751Z,10.90
2019-05-14T15:15:39.401Z,10.90
2019-05-14T15:18:09.494Z,10.80
2019-05-14T15:20:35.670Z,10.70
2019-05-14T15:23:02.422Z,10.70
2019-05-14T15:25:29.420Z,10.80
2019-05-14T15:27:58.305Z,10.80
2019-05-14T15:30:24.950Z,10.90
2019-05-14T15:32:53.450Z,10.70
2019-05-14T15:35:20.267Z,10.60
2019-05-14T15:37:48.784Z,10.50
2019-05-14T15:40:16.032Z,10.40
2019-05-14T15:42:44.198Z,10.50
2019-05-14T15:45:11.185Z,10.50
2019-05-14T15:47:38.915Z,10.50
2019-05-14T15:50:09.179Z,10.50
2019-05-14T15:52:39.016Z,10.60
2019-05-14T15:55:08.580Z,10.60
2019-05-14T15:57:35.312Z,10.80
2019-05-14T16:00:08.633Z,10.80
2019-05-14T16:02:38.645Z,10.70
2019-05-14T16:05:10.521Z,10.60
2019-05-14T16:07:39.083Z,10.50
2019-05-14T16:10:08.601Z,10.60
2019-05-14T16:12:39.688Z,10.50
2019-05-14T16:15:08.927Z,10.50
2019-05-14T16:17:45.491Z,10.40
2019-05-14T16:20:08.969Z,10.40
2019-05-14T16:22:39.333Z,10.60
2019-05-14T16:25:08.859Z,10.50
2019-05-14T16:27:40.000Z,10.60
2019-05-14T16:30:09.937Z,10.50
2019-05-14T16:32:39.152Z,10.40
2019-05-14T16:35:05.345Z,10.30
2019-05-14T16:37:31.989Z,10.30
2019-05-14T16:39:58.647Z,10.30
2019-05-14T16:42:29.165Z,10.20
2019-05-14T16:44:54.012Z,10.30
2019-05-14T16:47:21.270Z,10.30
2019-05-14T16:49:48.584Z,10.30
2019-05-14T16:52:17.950Z,10.20
2019-05-14T16:55:08.880Z,10.20
2019-05-14T16:57:21.223Z,10.10
2019-05-14T16:59:49.673Z,10.10
2019-05-14T17:02:20.844Z,10.10
2019-05-14T17:04:48.288Z,10.20
2019-05-14T17:07:15.463Z,10.10
2019-05-14T17:09:42.914Z,10.00
2019-05-14T17:12:10.306Z,10.10
2019-05-14T17:14:38.542Z,10.10
2019-05-14T17:17:05.403Z,9.90
2019-05-14T17:19:32.059Z,9.90
2019-05-14T17:21:59.501Z,9.80
2019-05-14T17:24:28.913Z,9.80
2019-05-14T17:26:54.730Z,9.80
2019-05-14T17:29:21.514Z,9.80
2019-05-14T17:31:49.310Z,9.80
2019-05-14T17:34:18.606Z,9.80
2019-05-14T17:36:44.916Z,9.90
2019-05-14T17:39:11.385Z,9.90
2019-05-14T17:41:41.661Z,9.70
2019-05-14T17:44:08.920Z,9.80
2019-05-14T17:46:35.929Z,9.70
2019-05-14T17:49:02.756Z,9.70
2019-05-14T17:51:29.428Z,9.60
2019-05-14T17:54:02.333Z,9.70
2019-05-14T17:56:29.331Z,9.70
2019-05-14T17:58:57.932Z,9.70
2019-05-14T18:01:24.656Z,9.80
2019-05-14T18:03:51.522Z,9.70
2019-05-14T18:06:18.925Z,9.80
2019-05-14T18:08:45.753Z,9.70
2019-05-14T18:11:15.705Z,9.60
2019-05-14T18:13:42.727Z,9.60
2019-05-14T18:16:09.927Z,9.50
2019-05-14T18:18:42.205Z,9.60
2019-05-14T18:21:09.377Z,9.60
2019-05-14T18:23:41.561Z,9.50
2019-05-14T18:26:08.864Z,9.50
2019-05-14T18:28:33.654Z,9.40
2019-05-14T18:31:05.260Z,9.40
2019-05-14T18:33:32.414Z,9.40
2019-05-14T18:35:59.649Z,9.40
2019-05-14T18:38:38.849Z,9.40
2019-05-14T18:41:08.252Z,9.30
2019-05-14T18:43:34.716Z,9.30
2019-05-14T18:46:01.228Z,9.30
2019-05-14T18:48:28.981Z,9.20
2019-05-14T18:50:59.049Z,9.30
2019-05-14T18:53:24.692Z,9.20
2019-05-14T18:55:51.700Z,9.20
2019-05-14T18:58:19.645Z,9.20
2019-05-14T19:00:47.883Z,9.30
2019-05-14T19:03:15.315Z,9.30
2019-05-14T19:05:48.240Z,9.30
2019-05-14T19:08:31.159Z,9.30
2019-05-14T19:11:00.223Z,9.30
2019-05-14T19:13:28.194Z,9.20
2019-05-14T19:15:55.414Z,9.10
2019-05-14T19:18:22.050Z,9.10
2019-05-14T19:20:54.814Z,9.00
2019-05-14T19:23:21.589Z,9.10
2019-05-14T19:25:48.487Z,9.00
2019-05-14T19:28:15.638Z,9.00
2019-05-14T19:30:42.192Z,8.90
2019-05-14T19:33:08.814Z,8.90
2019-05-14T19:35:35.641Z,8.90
2019-05-14T19:38:02.396Z,8.80
2019-05-14T19:40:31.079Z,8.90
2019-05-14T19:42:57.979Z,8.90
2019-05-14T19:45:29.481Z,8.90
2019-05-14T19:47:58.254Z,8.80
2019-05-14T19:50:25.774Z,8.80
2019-05-14T19:52:52.412Z,8.80
2019-05-14T19:55:19.724Z,8.80
2019-05-14T19:57:48.799Z,8.80
2019-05-14T20:00:18.897Z,8.70
2019-05-14T20:02:48.735Z,8.70
2019-05-14T20:05:16.148Z,8.70
2019-05-14T20:07:42.881Z,8.70
2019-05-14T20:10:09.744Z,8.70
2019-05-14T20:12:38.886Z,8.60
2019-05-14T20:15:06.078Z,8.60
2019-05-14T20:17:32.712Z,8.60
2019-05-14T20:19:59.378Z,8.60
2019-05-14T20:22:28.253Z,8.50
2019-05-14T20:24:54.269Z,8.50
2019-05-14T20:27:21.204Z,8.50
2019-05-14T20:29:48.632Z,8.50
2019-05-14T20:32:15.599Z,8.50
2019-05-14T20:34:42.154Z,8.50
2019-05-14T20:37:08.682Z,8.50
2019-05-14T20:39:35.411Z,8.50
2019-05-14T20:42:02.014Z,8.40
2019-05-14T20:44:28.546Z,8.40
2019-05-14T20:46:55.213Z,8.40
2019-05-14T20:49:22.977Z,8.30
2019-05-14T20:51:49.573Z,8.40
2019-05-14T20:54:18.355Z,8.30
2019-05-14T20:56:45.567Z,8.30
2019-05-14T20:59:12.737Z,8.30
2019-05-14T21:01:39.469Z,8.20
2019-05-14T21:04:06.106Z,8.20
2019-05-14T21:06:32.805Z,8.20
2019-05-14T21:08:59.668Z,8.20
2019-05-14T21:11:28.547Z,8.20
2019-05-14T21:13:54.686Z,8.20
2019-05-14T21:16:21.268Z,8.20
2019-05-14T21:18:48.802Z,8.10
2019-05-14T21:21:15.510Z,8.20
2019-05-14T21:23:42.082Z,8.10
2019-05-14T21:26:08.711Z,8.10
2019-05-14T21:28:35.109Z,8.10
2019-05-14T21:31:02.589Z,8.10
2019-05-14T21:33:30.350Z,8.10
2019-05-14T21:35:59.276Z,8.10
2019-05-14T21:38:26.144Z,8.10
2019-05-14T21:40:52.601Z,8.10
2019-05-14T21:43:19.285Z,8.10
2019-05-14T21:45:45.801Z,8.00
2019-05-14T21:48:12.864Z,8.00
2019-05-14T21:50:39.448Z,8.00
2019-05-14T21:53:08.318Z,8.00
2019-05-14T21:55:34.957Z,7.90
2019-05-14T21:58:01.929Z,7.90
2019-05-14T22:00:33.925Z,7.80
2019-05-14T22:03:00.561Z,7.80
2019-05-14T22:05:28.432Z,7.80
2019-05-14T22:07:55.257Z,7.70
2019-05-14T22:10:22.025Z,7.70
2019-05-14T22:12:48.917Z,7.70
2019-05-14T22:15:15.583Z,7.60
2019-05-14T22:17:42.147Z,7.60
2019-05-14T22:20:09.370Z,7.60
2019-05-14T22:22:36.000Z,7.60
2019-05-14T22:25:07.070Z,7.60
2019-05-14T22:27:33.676Z,7.60
2019-05-14T22:30:00.206Z,7.60
2019-05-14T22:32:28.555Z,7.60
2019-05-14T22:34:55.183Z,7.60
2019-05-14T22:37:22.127Z,7.60
2019-05-14T22:39:48.656Z,7.50
2019-05-14T22:42:15.385Z,7.50
2019-05-14T22:44:42.087Z,7.50
2019-05-14T22:47:08.707Z,7.40
2019-05-14T22:49:35.312Z,7.40
2019-05-14T22:52:01.765Z,7.40
2019-05-14T22:54:29.157Z,7.50
2019-05-14T22:56:55.833Z,7.40
2019-05-14T22:59:22.479Z,7.40
2019-05-14T23:01:48.986Z,7.40
2019-05-14T23:04:15.589Z,7.40
2019-05-14T23:06:45.244Z,7.40
2019-05-14T23:09:11.870Z,7.40
2019-05-14T23:11:38.678Z,7.40
2019-05-14T23:14:06.154Z,7.40
2019-05-14T23:16:37.762Z,7.40
2019-05-14T23:19:01.137Z,7.40
2019-05-14T23:21:28.375Z,7.40
2019-05-14T23:23:55.513Z,7.40
2019-05-14T23:26:23.372Z,7.50
2019-05-14T23:28:50.019Z,7.50
2019-05-14T23:31:16.516Z,7.40
2019-05-14T23:33:43.068Z,7.40
2019-05-14T23:36:09.949Z,7.40
2019-05-14T23:38:38.638Z,7.40
2019-05-14T23:41:08.446Z,7.40
2019-05-14T23:43:34.070Z,7.40
2019-05-14T23:46:00.629Z,7.40
2019-05-14T23:48:27.057Z,7.40
2019-05-14T23:50:53.747Z,7.40
2019-05-14T23:53:20.304Z,7.40
2019-05-14T23:55:48.106Z,7.40
2019-05-14T23:58:14.739Z,7.30
